createdAt,value
2023-04-18T00:02:07.069Z,82.67
2023-04-18T00:04:36.311Z,82.30
2023-04-18T00:07:03.983Z,79.78
2023-04-18T00:09:31.619Z,80.78
2023-04-18T00:11:59.285Z,81.90
2023-04-18T00:14:28.920Z,80.75
2023-04-18T00:16:57.214Z,81.48
2023-04-18T00:19:24.879Z,83.51
2023-04-18T00:21:53.990Z,83.27
2023-04-18T00:24:22.080Z,83.96
2023-04-18T00:26:49.887Z,84.32
2023-04-18T00:29:17.543Z,82.19
2023-04-18T00:31:45.232Z,80.38
2023-04-18T00:34:13.116Z,79.16
2023-04-18T00:36:40.913Z,82.65
2023-04-18T00:39:09.876Z,82.31
2023-04-18T00:41:37.530Z,83.21
2023-04-18T00:44:05.339Z,84.15
2023-04-18T00:46:33.190Z,82.78
2023-04-18T00:49:01.031Z,82.36
2023-04-18T00:51:29.125Z,85.43
2023-04-18T00:53:56.976Z,84.58
2023-04-18T00:56:26.685Z,83.52
2023-04-18T00:58:54.636Z,83.81
2023-04-18T01:01:22.340Z,84.31
2023-04-18T01:03:50.133Z,82.19
2023-04-18T01:06:18.674Z,80.04
2023-04-18T01:08:46.637Z,82.64
2023-04-18T01:11:14.280Z,82.63
2023-04-18T01:13:43.293Z,84.03
2023-04-18T01:16:10.962Z,83.58
2023-04-18T01:18:40.189Z,85.78
2023-04-18T01:21:08.248Z,83.72
2023-04-18T01:23:36.533Z,82.44
2023-04-18T01:26:05.726Z,82.82
2023-04-18T01:28:37.913Z,83.44
2023-04-18T01:31:05.768Z,83.63
2023-04-18T01:33:33.443Z,84.24
2023-04-18T01:36:01.069Z,84.38
2023-04-18T01:38:28.746Z,83.51
2023-04-18T01:40:56.366Z,82.37
2023-04-18T01:43:25.359Z,81.17
2023-04-18T01:45:53.022Z,82.71
2023-04-18T01:48:20.694Z,85.30
2023-04-18T01:50:48.311Z,83.70
2023-04-18T01:53:17.557Z,82.08
2023-04-18T01:55:45.193Z,84.82
2023-04-18T01:58:12.782Z,84.86
2023-04-18T02:00:41.784Z,85.92
2023-04-18T02:03:09.561Z,86.16
2023-04-18T02:05:37.567Z,83.41
2023-04-18T02:08:05.743Z,84.96
2023-04-18T02:10:33.397Z,84.67
2023-04-18T02:13:01.034Z,82.82
2023-04-18T02:15:28.678Z,81.92
2023-04-18T02:18:00.198Z,81.45
2023-04-18T02:20:31.581Z,82.55
2023-04-18T02:22:59.303Z,82.76
2023-04-18T02:25:28.839Z,83.54
2023-04-18T02:27:58.030Z,83.45
2023-04-18T02:30:26.302Z,84.26
2023-04-18T02:32:54.723Z,84.27
2023-04-18T02:35:24.754Z,86.39
2023-04-18T02:37:52.859Z,83.70
2023-04-18T02:40:20.787Z,84.88
2023-04-18T02:42:48.466Z,85.41
2023-04-18T02:45:16.409Z,86.40
2023-04-18T02:47:54.434Z,86.72
2023-04-18T02:50:30.132Z,86.35
2023-04-18T02:52:57.932Z,87.59
2023-04-18T02:55:26.887Z,87.95
2023-04-18T02:57:54.609Z,84.01
2023-04-18T03:00:22.436Z,86.51
2023-04-18T03:02:50.526Z,85.88
2023-04-18T03:05:18.333Z,85.93
2023-04-18T03:07:47.305Z,86.01
2023-04-18T03:10:15.097Z,86.74
2023-04-18T03:12:42.895Z,88.48
2023-04-18T03:15:11.458Z,88.62
2023-04-18T03:17:39.159Z,86.18
2023-04-18T03:20:08.000Z,86.83
2023-04-18T03:22:35.653Z,85.40
2023-04-18T03:25:05.050Z,87.74
2023-04-18T03:27:32.661Z,86.53
2023-04-18T03:30:00.576Z,88.29
2023-04-18T03:32:28.364Z,88.83
2023-04-18T03:34:55.984Z,86.34
2023-04-18T03:37:23.613Z,85.53
2023-04-18T03:39:51.248Z,83.77
2023-04-18T03:42:20.219Z,84.52
2023-04-18T03:44:47.829Z,85.38
2023-04-18T03:47:16.785Z,87.32
2023-04-18T03:49:44.423Z,86.78
2023-04-18T03:52:12.114Z,86.00
2023-04-18T03:54:39.772Z,88.68
2023-04-18T03:57:07.401Z,87.18
2023-04-18T03:59:36.398Z,90.14
2023-04-18T04:02:04.238Z,88.93
2023-04-18T04:04:31.949Z,91.83
2023-04-18T04:06:59.947Z,89.83
2023-04-18T04:09:27.535Z,87.73
2023-04-18T04:11:55.215Z,88.44
2023-04-18T04:14:24.510Z,89.85
2023-04-18T04:16:53.573Z,87.18
2023-04-18T04:19:21.182Z,87.92
2023-04-18T04:21:48.813Z,90.15
2023-04-18T04:24:16.811Z,90.08
2023-04-18T04:26:44.621Z,90.98
2023-04-18T04:29:13.770Z,87.76
2023-04-18T04:31:41.535Z,90.06
2023-04-18T04:34:10.498Z,88.83
2023-04-18T04:36:38.164Z,88.20
2023-04-18T04:39:05.795Z,88.35
2023-04-18T04:41:33.545Z,85.73
2023-04-18T04:44:01.810Z,89.42
2023-04-18T04:46:30.354Z,89.58
2023-04-18T04:48:58.157Z,86.99
2023-04-18T04:51:27.992Z,88.38
2023-04-18T04:53:55.682Z,88.20
2023-04-18T04:56:23.639Z,88.46
2023-04-18T04:58:51.312Z,86.46
2023-04-18T05:01:19.094Z,86.33
2023-04-18T05:03:46.920Z,88.01
2023-04-18T05:06:20.484Z,87.66
2023-04-18T05:08:49.900Z,87.60
2023-04-18T05:11:17.931Z,83.99
2023-04-18T05:13:45.556Z,79.50
2023-04-18T05:16:13.255Z,71.95
2023-04-18T05:18:41.479Z,74.97
2023-04-18T05:21:09.357Z,70.64
2023-04-18T05:24:01.274Z,71.32
2023-04-18T05:26:30.365Z,72.90
2023-04-18T05:28:57.955Z,67.72
2023-04-18T05:31:26.785Z,67.94
2023-04-18T05:33:54.467Z,68.09
2023-04-18T05:36:22.817Z,72.16
2023-04-18T05:38:50.684Z,72.99
2023-04-18T05:41:18.328Z,70.50
2023-04-18T05:44:01.850Z,73.15
2023-04-18T05:46:33.114Z,74.70
2023-04-18T05:49:01.133Z,70.26
2023-04-18T05:51:29.228Z,69.91
2023-04-18T05:53:56.877Z,71.26
2023-04-18T05:56:24.483Z,69.33
2023-04-18T05:58:53.454Z,67.34
2023-04-18T06:01:21.339Z,71.48
2023-04-18T06:03:49.144Z,68.98
2023-04-18T06:06:17.057Z,66.21
2023-04-18T06:08:44.661Z,63.05
2023-04-18T06:11:12.622Z,60.08
2023-04-18T06:13:40.519Z,59.67
2023-04-18T06:16:09.740Z,57.77
2023-04-18T06:18:37.436Z,57.11
2023-04-18T06:21:05.358Z,57.01
2023-04-18T06:23:32.988Z,58.42
2023-04-18T06:26:00.763Z,54.23
2023-04-18T06:28:28.434Z,55.14
2023-04-18T06:30:56.099Z,50.06
2023-04-18T06:33:25.116Z,52.34
2023-04-18T06:35:53.287Z,53.02
2023-04-18T06:38:21.397Z,49.57
2023-04-18T06:40:49.015Z,56.07
2023-04-18T06:43:16.664Z,56.99
2023-04-18T06:45:44.494Z,54.37
2023-04-18T06:48:12.195Z,53.43
2023-04-18T06:50:41.334Z,47.98
2023-04-18T06:53:08.960Z,52.26
2023-04-18T06:55:37.064Z,51.29
2023-04-18T06:58:05.694Z,56.41
2023-04-18T07:00:33.422Z,60.46
2023-04-18T07:03:02.118Z,62.89
2023-04-18T07:05:29.838Z,64.88
2023-04-18T07:07:58.840Z,65.06
2023-04-18T07:10:26.452Z,65.72
2023-04-18T07:12:54.076Z,66.59
2023-04-18T07:15:21.701Z,65.28
2023-04-18T07:17:49.588Z,66.69
2023-04-18T07:20:17.368Z,65.81
2023-04-18T07:22:45.856Z,65.79
2023-04-18T07:25:14.814Z,64.66
2023-04-18T07:27:42.532Z,64.04
2023-04-18T07:30:11.106Z,64.74
2023-04-18T07:32:38.892Z,60.00
2023-04-18T07:35:07.773Z,58.62
2023-04-18T07:37:35.942Z,61.34
2023-04-18T07:40:04.128Z,61.01
2023-04-18T07:42:33.216Z,58.08
2023-04-18T07:45:00.827Z,60.69
2023-04-18T07:47:30.762Z,58.17
2023-04-18T07:49:59.220Z,57.83
2023-04-18T07:52:27.207Z,60.33
2023-04-18T07:54:54.857Z,59.89
2023-04-18T07:57:22.496Z,61.86
2023-04-18T07:59:53.737Z,61.73
2023-04-18T08:02:21.711Z,60.98
2023-04-18T08:04:50.039Z,60.04
2023-04-18T08:07:17.956Z,60.62
2023-04-18T08:09:45.892Z,59.30
2023-04-18T08:12:13.503Z,60.05
2023-04-18T08:14:41.272Z,59.42
2023-04-18T08:17:10.280Z,60.76
2023-04-18T08:19:38.014Z,61.39
2023-04-18T08:22:10.636Z,61.08
2023-04-18T08:24:39.295Z,59.24
2023-04-18T08:27:07.350Z,59.89
2023-04-18T08:29:35.024Z,58.84
2023-04-18T08:32:02.818Z,59.01
2023-04-18T08:34:34.031Z,52.56
2023-04-18T08:37:01.765Z,47.87
2023-04-18T08:39:29.610Z,45.54
2023-04-18T08:42:00.446Z,52.67
2023-04-18T08:44:29.241Z,55.61
2023-04-18T08:46:57.550Z,54.78
2023-04-18T08:49:26.213Z,51.05
2023-04-18T08:51:57.507Z,56.04
2023-04-18T08:54:27.148Z,57.99
2023-04-18T08:57:08.768Z,57.94
2023-04-18T08:59:37.043Z,59.36
2023-04-18T09:02:08.734Z,60.87
2023-04-18T09:04:37.890Z,63.46
2023-04-18T09:07:08.751Z,65.66
2023-04-18T09:09:47.050Z,66.06
2023-04-18T09:12:18.142Z,67.03
2023-04-18T09:14:47.902Z,65.88
2023-04-18T09:17:18.206Z,65.51
2023-04-18T09:19:50.299Z,66.86
2023-04-18T09:22:19.312Z,65.42
2023-04-18T09:24:53.170Z,64.26
2023-04-18T09:27:22.928Z,64.53
2023-04-18T09:29:52.306Z,66.61
2023-04-18T09:32:26.799Z,66.72
2023-04-18T09:34:57.861Z,67.14
2023-04-18T09:37:27.346Z,67.79
2023-04-18T09:39:56.685Z,65.59
2023-04-18T09:42:26.159Z,68.34
2023-04-18T09:45:06.613Z,68.85
2023-04-18T09:47:36.344Z,67.35
2023-04-18T09:50:04.837Z,66.42
2023-04-18T09:52:36.574Z,67.54
2023-04-18T09:55:05.824Z,67.97
2023-04-18T09:57:34.752Z,66.22
2023-04-18T10:00:13.883Z,68.36
2023-04-18T10:02:49.867Z,67.68
2023-04-18T10:05:20.971Z,67.04
2023-04-18T10:07:51.591Z,66.63
2023-04-18T10:10:19.658Z,67.07
2023-04-18T10:12:50.503Z,63.70
2023-04-18T10:15:19.217Z,64.65
2023-04-18T10:18:03.594Z,64.77
2023-04-18T10:20:34.653Z,64.56
2023-04-18T10:23:38.326Z,64.12
2023-04-18T10:26:06.825Z,63.97
2023-04-18T10:28:54.757Z,61.15
2023-04-18T10:31:24.036Z,60.17
2023-04-18T10:34:03.767Z,62.20
2023-04-18T10:36:32.405Z,62.96
2023-04-18T10:39:04.581Z,61.03
2023-04-18T10:41:33.097Z,61.55
2023-04-18T10:44:27.046Z,61.95
2023-04-18T10:47:21.741Z,60.81
2023-04-18T10:50:01.106Z,59.75
2023-04-18T10:52:29.798Z,58.47
2023-04-18T10:55:09.660Z,57.44
2023-04-18T10:57:41.519Z,60.86
2023-04-18T11:00:12.481Z,60.78
2023-04-18T11:02:40.549Z,60.60
2023-04-18T11:05:09.753Z,61.87
2023-04-18T11:07:38.928Z,59.94
2023-04-18T11:10:10.324Z,60.10
2023-04-18T11:12:39.439Z,61.88
2023-04-18T11:15:11.878Z,62.34
2023-04-18T11:17:40.764Z,60.14
2023-04-18T11:20:11.245Z,61.77
2023-04-18T11:22:47.978Z,60.64
2023-04-18T11:25:17.401Z,60.81
2023-04-18T11:27:45.737Z,59.61
2023-04-18T11:30:15.012Z,60.93
2023-04-18T11:32:42.792Z,62.07
2023-04-18T11:35:11.994Z,61.90
2023-04-18T11:37:40.658Z,62.26
2023-04-18T11:40:10.774Z,61.12
2023-04-18T11:42:41.409Z,61.27
2023-04-18T11:45:12.853Z,60.84
2023-04-18T11:47:42.362Z,60.07
2023-04-18T11:50:11.545Z,59.95
2023-04-18T11:52:41.128Z,62.45
2023-04-18T11:55:14.669Z,61.86
2023-04-18T11:57:44.157Z,63.72
2023-04-18T12:00:13.479Z,61.57
2023-04-18T12:02:43.132Z,62.93
2023-04-18T12:05:11.754Z,63.33
2023-04-18T12:07:41.571Z,63.93
2023-04-18T12:10:23.628Z,64.22
2023-04-18T12:12:54.387Z,63.30
2023-04-18T12:15:24.037Z,63.06
2023-04-18T12:17:52.392Z,63.69
2023-04-18T12:20:20.291Z,64.32
2023-04-18T12:22:49.556Z,62.19
2023-04-18T12:25:27.756Z,63.46
2023-04-18T12:27:59.110Z,62.78
2023-04-18T12:30:28.806Z,61.36
2023-04-18T12:32:58.248Z,61.75
2023-04-18T12:35:26.660Z,61.41
2023-04-18T12:37:56.112Z,61.68
2023-04-18T12:40:26.156Z,61.92
2023-04-18T12:42:55.347Z,62.34
2023-04-18T12:45:24.791Z,63.62
2023-04-18T12:47:53.572Z,63.66
2023-04-18T12:50:22.759Z,62.63
2023-04-18T12:52:52.126Z,63.71
2023-04-18T12:55:20.091Z,60.20
2023-04-18T12:57:47.762Z,63.42
2023-04-18T13:00:15.540Z,63.81
2023-04-18T13:02:46.224Z,63.48
2023-04-18T13:05:15.695Z,62.40
2023-04-18T13:07:44.157Z,63.14
2023-04-18T13:10:13.358Z,64.14
2023-04-18T13:12:41.908Z,62.48
2023-04-18T13:15:10.564Z,63.06
2023-04-18T13:17:39.186Z,62.76
2023-04-18T13:20:10.817Z,61.95
2023-04-18T13:22:38.714Z,63.21
2023-04-18T13:25:08.174Z,63.04
2023-04-18T13:27:35.843Z,63.08
2023-04-18T13:30:03.803Z,60.34
2023-04-18T13:32:31.572Z,62.97
2023-04-18T13:34:59.227Z,63.62
2023-04-18T13:37:28.244Z,64.18
2023-04-18T13:39:55.891Z,64.86
2023-04-18T13:42:23.546Z,63.44
2023-04-18T13:44:51.181Z,63.45
2023-04-18T13:47:19.552Z,61.70
2023-04-18T13:49:47.320Z,62.11
2023-04-18T13:52:14.982Z,63.91
2023-04-18T13:54:43.982Z,65.81
2023-04-18T13:57:12.368Z,64.70
2023-04-18T13:59:40.911Z,64.93
2023-04-18T14:02:09.517Z,62.55
2023-04-18T14:04:37.845Z,63.47
2023-04-18T14:07:07.974Z,64.18
2023-04-18T14:09:35.687Z,61.86
2023-04-18T14:12:05.122Z,63.57
2023-04-18T14:14:32.791Z,62.89
2023-04-18T14:17:00.492Z,64.55
2023-04-18T14:19:28.363Z,64.00
2023-04-18T14:21:56.009Z,64.03
2023-04-18T14:24:23.637Z,64.02
2023-04-18T14:26:51.349Z,63.84
2023-04-18T14:29:20.334Z,65.25
2023-04-18T14:31:48.027Z,63.79
2023-04-18T14:34:15.773Z,65.42
2023-04-18T14:36:43.452Z,63.15
2023-04-18T14:39:11.342Z,64.41
2023-04-18T14:41:39.145Z,63.24
2023-04-18T14:44:06.821Z,62.38
2023-04-18T14:46:35.817Z,63.57
2023-04-18T14:49:03.491Z,64.59
2023-04-18T14:51:31.189Z,65.27
2023-04-18T14:53:58.822Z,63.37
2023-04-18T14:56:26.527Z,63.95
2023-04-18T14:58:54.202Z,65.25
2023-04-18T15:01:22.006Z,66.35
2023-04-18T15:03:52.503Z,65.04
2023-04-18T15:06:20.258Z,64.40
2023-04-18T15:08:47.878Z,66.23
2023-04-18T15:11:15.518Z,66.56
2023-04-18T15:13:43.097Z,66.00
2023-04-18T15:16:10.825Z,67.03
2023-04-18T15:18:38.465Z,66.04
2023-04-18T15:21:07.508Z,66.53
2023-04-18T15:23:35.192Z,65.60
2023-04-18T15:26:02.922Z,66.60
2023-04-18T15:28:30.613Z,64.55
2023-04-18T15:30:58.232Z,64.45
2023-04-18T15:33:26.009Z,64.33
2023-04-18T15:35:53.756Z,65.87
2023-04-18T15:38:22.748Z,67.15
2023-04-18T15:40:51.092Z,67.80
2023-04-18T15:43:18.947Z,66.19
2023-04-18T15:45:46.904Z,66.41
2023-04-18T15:48:14.667Z,65.68
2023-04-18T15:50:51.018Z,66.99
2023-04-18T15:53:18.781Z,67.04
2023-04-18T15:55:47.846Z,65.86
2023-04-18T15:58:15.496Z,65.56
2023-04-18T16:00:44.329Z,66.93
2023-04-18T16:03:12.232Z,65.65
2023-04-18T16:05:40.077Z,66.78
2023-04-18T16:08:08.876Z,67.69
2023-04-18T16:10:36.539Z,66.36
2023-04-18T16:13:06.649Z,67.77
2023-04-18T16:15:35.528Z,66.10
2023-04-18T16:18:03.229Z,66.09
2023-04-18T16:20:33.184Z,67.49
2023-04-18T16:23:00.841Z,66.62
2023-04-18T16:25:28.585Z,65.16
2023-04-18T16:27:56.237Z,65.32
2023-04-18T16:30:25.261Z,66.70
2023-04-18T16:32:54.238Z,66.24
2023-04-18T16:35:21.993Z,67.28
2023-04-18T16:37:49.707Z,67.19
2023-04-18T16:40:17.378Z,66.15
2023-04-18T16:42:45.039Z,67.62
2023-04-18T16:45:12.636Z,66.39
2023-04-18T16:47:41.694Z,66.90
2023-04-18T16:50:10.236Z,66.69
2023-04-18T16:52:37.983Z,65.88
2023-04-18T16:55:06.701Z,66.01
2023-04-18T16:57:34.519Z,66.92
2023-04-18T17:00:02.768Z,68.79
2023-04-18T17:02:30.669Z,67.08
2023-04-18T17:05:00.017Z,65.42
2023-04-18T17:07:27.757Z,66.99
2023-04-18T17:09:55.365Z,67.71
2023-04-18T17:12:22.984Z,68.77
2023-04-18T17:14:50.697Z,68.98
2023-04-18T17:17:18.320Z,70.27
2023-04-18T17:19:46.541Z,70.47
2023-04-18T17:22:15.501Z,69.66
2023-04-18T17:24:43.199Z,69.74
2023-04-18T17:27:10.893Z,69.39
2023-04-18T17:29:38.578Z,68.49
2023-04-18T17:32:06.833Z,69.64
2023-04-18T17:34:34.537Z,70.26
2023-04-18T17:37:03.045Z,69.01
2023-04-18T17:39:33.570Z,68.45
2023-04-18T17:42:02.056Z,68.27
2023-04-18T17:44:29.949Z,69.79
2023-04-18T17:46:57.644Z,70.86
2023-04-18T17:49:30.657Z,71.20
2023-04-18T17:51:58.281Z,70.42
2023-04-18T17:54:25.974Z,71.21
2023-04-18T17:56:55.004Z,69.77
2023-04-18T17:59:22.629Z,66.70
2023-04-18T18:01:50.772Z,69.96
2023-04-18T18:04:19.690Z,70.92
2023-04-18T18:06:54.771Z,70.30
2023-04-18T18:09:22.477Z,70.86
2023-04-18T18:11:50.104Z,70.46
2023-04-18T18:14:20.089Z,70.20
2023-04-18T18:16:47.974Z,71.58
2023-04-18T18:19:16.532Z,71.30
2023-04-18T18:21:44.376Z,69.06
2023-04-18T18:24:12.503Z,73.50
2023-04-18T18:26:40.371Z,72.32
2023-04-18T18:29:11.059Z,73.22
2023-04-18T18:31:40.386Z,72.68
2023-04-18T18:34:08.076Z,73.99
2023-04-18T18:36:35.712Z,74.31
2023-04-18T18:39:03.696Z,72.98
2023-04-18T18:41:31.357Z,72.73
2023-04-18T18:43:58.945Z,74.17
2023-04-18T18:46:27.258Z,76.37
2023-04-18T18:48:56.364Z,76.21
2023-04-18T18:51:24.077Z,77.00
2023-04-18T18:53:51.643Z,75.80
2023-04-18T18:56:19.247Z,76.90
2023-04-18T18:58:46.926Z,75.94
2023-04-18T19:01:14.612Z,76.32
2023-04-18T19:03:42.504Z,76.41
2023-04-18T19:06:11.608Z,75.51
2023-04-18T19:08:39.233Z,78.22
2023-04-18T19:11:07.033Z,77.22
2023-04-18T19:13:34.680Z,75.91
2023-04-18T19:16:02.391Z,77.73
2023-04-18T19:18:30.149Z,77.53
2023-04-18T19:20:57.822Z,77.92
2023-04-18T19:23:27.752Z,78.44
2023-04-18T19:25:55.408Z,78.87
2023-04-18T19:28:23.155Z,78.38
2023-04-18T19:30:51.133Z,75.38
2023-04-18T19:33:19.680Z,79.76
2023-04-18T19:35:47.341Z,80.60
2023-04-18T19:38:14.997Z,78.40
2023-04-18T19:40:44.065Z,80.66
2023-04-18T19:43:11.849Z,79.83
2023-04-18T19:45:39.641Z,79.22
2023-04-18T19:48:07.552Z,82.00
2023-04-18T19:50:35.282Z,81.06
2023-04-18T19:53:03.009Z,79.95
2023-04-18T19:55:31.041Z,81.58
2023-04-18T19:58:00.516Z,81.27
2023-04-18T20:00:29.320Z,81.09
2023-04-18T20:02:58.580Z,82.19
2023-04-18T20:05:26.460Z,82.16
2023-04-18T20:07:54.101Z,82.75
2023-04-18T20:10:22.330Z,81.32
2023-04-18T20:12:50.162Z,81.63
2023-04-18T20:15:19.491Z,81.02
2023-04-18T20:17:47.193Z,82.84
2023-04-18T20:20:15.082Z,81.86
2023-04-18T20:22:44.687Z,81.69
2023-04-18T20:25:12.333Z,82.63
2023-04-18T20:27:40.047Z,83.38
2023-04-18T20:30:08.602Z,83.34
2023-04-18T20:32:37.640Z,81.81
2023-04-18T20:35:05.899Z,81.61
2023-04-18T20:37:36.881Z,82.52
2023-04-18T20:40:07.933Z,81.05
2023-04-18T20:42:36.629Z,81.69
2023-04-18T20:45:04.414Z,81.26
2023-04-18T20:47:32.049Z,81.37
2023-04-18T20:50:01.160Z,80.65
2023-04-18T20:52:28.871Z,81.52
2023-04-18T20:54:56.483Z,82.59
2023-04-18T20:57:24.081Z,82.45
2023-04-18T20:59:51.733Z,82.26
2023-04-18T21:02:19.424Z,83.26
2023-04-18T21:04:47.660Z,80.41
2023-04-18T21:07:16.673Z,81.65
2023-04-18T21:09:44.304Z,80.44
2023-04-18T21:12:11.974Z,80.70
2023-04-18T21:14:39.947Z,81.55
2023-04-18T21:17:09.557Z,80.54
2023-04-18T21:19:37.651Z,81.55
2023-04-18T21:22:05.249Z,81.51
2023-04-18T21:24:34.300Z,81.62
2023-04-18T21:27:02.472Z,80.53
2023-04-18T21:29:30.123Z,79.27
2023-04-18T21:31:57.791Z,80.16
2023-04-18T21:34:25.480Z,81.48
2023-04-18T21:36:53.153Z,82.15
2023-04-18T21:39:20.774Z,80.47
2023-04-18T21:41:49.756Z,80.06
2023-04-18T21:44:18.687Z,82.68
2023-04-18T21:47:23.477Z,80.26
2023-04-18T21:49:51.150Z,82.47
2023-04-18T21:52:18.859Z,80.31
2023-04-18T21:54:46.497Z,79.33
2023-04-18T21:57:15.507Z,81.49
2023-04-18T21:59:43.154Z,81.84
2023-04-18T22:02:10.853Z,81.59
2023-04-18T22:04:42.500Z,79.68
2023-04-18T22:07:11.356Z,79.83
2023-04-18T22:09:39.743Z,81.44
2023-04-18T22:12:07.735Z,82.07
2023-04-18T22:14:36.743Z,80.65
2023-04-18T22:17:04.732Z,80.41
2023-04-18T22:19:32.445Z,81.70
2023-04-18T22:22:00.067Z,81.30
2023-04-18T22:24:27.736Z,81.27
2023-04-18T22:26:55.384Z,80.15
2023-04-18T22:29:22.994Z,78.96
2023-04-18T22:31:52.007Z,79.08
2023-04-18T22:34:19.634Z,78.90
2023-04-18T22:36:47.556Z,80.29
2023-04-18T22:39:15.341Z,79.20
2023-04-18T22:41:42.962Z,77.77
2023-04-18T22:44:10.638Z,79.02
2023-04-18T22:46:39.239Z,81.03
2023-04-18T22:49:08.260Z,80.32
2023-04-18T22:51:35.901Z,79.61
2023-04-18T22:54:03.536Z,79.88
2023-04-18T22:56:31.271Z,78.83
2023-04-18T22:58:58.908Z,77.99
2023-04-18T23:01:26.813Z,76.35
2023-04-18T23:03:54.725Z,77.47
2023-04-18T23:06:23.943Z,77.95
2023-04-18T23:08:51.614Z,76.17
2023-04-18T23:11:19.220Z,75.81
2023-04-18T23:13:46.818Z,76.13
2023-04-18T23:16:14.428Z,77.23
2023-04-18T23:18:42.163Z,77.03
2023-04-18T23:21:09.802Z,74.69
2023-04-18T23:23:38.843Z,77.21
2023-04-18T23:26:13.850Z,74.73
2023-04-18T23:28:42.172Z,73.41
2023-04-18T23:31:10.380Z,73.60
2023-04-18T23:33:38.066Z,71.76
2023-04-18T23:36:06.517Z,72.16
2023-04-18T23:38:37.108Z,70.39
2023-04-18T23:41:06.337Z,71.50
2023-04-18T23:43:34.338Z,72.90
2023-04-18T23:46:02.128Z,73.15
2023-04-18T23:48:29.770Z,71.50
2023-04-18T23:50:57.425Z,72.27
2023-04-18T23:53:25.260Z,71.32
2023-04-18T23:55:54.504Z,71.37
2023-04-18T23:58:23.492Z,72.93
